createdAt,value
2023-03-24T10:22:04.161Z,94193.00
2023-03-24T12:33:50.323Z,94165.00
2023-03-24T12:37:50.381Z,94148.00
2023-03-24T12:41:50.397Z,94151.00
2023-03-24T12:49:50.437Z,94122.00
2023-03-24T12:53:50.359Z,94118.00
2023-03-24T13:01:50.674Z,94101.00
2023-03-24T13:05:50.825Z,94097.00
2023-03-24T13:09:50.560Z,94085.00
2023-03-24T13:13:50.532Z,94073.00
2023-03-24T13:17:50.497Z,94075.00
2023-03-24T13:29:50.741Z,94052.00
2023-03-24T13:37:50.446Z,94030.00
2023-03-24T13:41:50.687Z,94034.00
2023-03-24T13:45:51.228Z,94038.00
2023-03-24T13:49:51.078Z,94026.00
2023-03-24T13:53:51.283Z,94016.00
2023-03-24T13:57:51.824Z,94016.00
2023-03-24T14:01:51.460Z,94016.00
2023-03-24T14:05:51.395Z,94014.00
2023-03-24T14:09:51.381Z,94001.00
2023-03-24T14:13:51.311Z,93989.00
2023-03-24T14:17:51.349Z,93979.00
2023-03-24T14:21:51.243Z,93975.00
2023-03-24T14:25:51.450Z,93973.00
2023-03-24T14:29:51.226Z,93977.00
2023-03-24T14:33:51.185Z,93963.00
2023-03-24T14:37:51.159Z,93948.00
2023-03-24T14:41:51.097Z,93944.00
2023-03-24T14:45:51.446Z,93938.00
2023-03-24T14:49:51.184Z,93928.00
2023-03-24T14:53:51.380Z,93922.00
2023-03-24T14:57:51.531Z,93930.00
2023-03-24T15:01:51.812Z,93928.00
2023-03-24T15:05:51.957Z,93930.00
2023-03-24T15:09:52.118Z,93926.00
2023-03-24T15:13:52.368Z,93915.00
2023-03-24T15:49:52.330Z,93903.00
2023-03-24T17:01:53.495Z,94003.00
2023-03-24T17:05:53.429Z,94075.00
2023-03-24T17:09:53.470Z,94112.00
2023-03-24T17:13:53.531Z,94157.00
2023-03-24T17:53:53.632Z,94240.00
2023-03-24T18:49:53.877Z,94304.00
2023-03-24T22:17:59.167Z,94420.00
2023-03-24T23:06:00.223Z,94390.00
2023-03-24T23:29:59.975Z,94404.00
2023-03-24T23:33:59.961Z,94400.00
2023-03-24T23:37:59.908Z,94404.00
2023-03-24T23:42:00.056Z,94408.00
2023-03-24T23:46:00.259Z,94418.00
2023-03-24T23:50:00.357Z,94422.00
2023-03-24T23:54:00.489Z,94431.00
2023-03-24T23:58:00.683Z,94429.00
